CDT,Max TemperatureF,Mean TemperatureF,Min TemperatureF,Max Dew PointF,MeanDew PointF,Min DewpointF,Max Humidity, Mean Humidity, Min Humidity, Max Sea Level PressureIn, Mean Sea Level PressureIn, Min Sea Level PressureIn, Max VisibilityMiles, Mean VisibilityMiles, Min VisibilityMiles, Max Wind SpeedMPH, Mean Wind SpeedMPH, Max Gust SpeedMPH,PrecipitationIn, CloudCover, Events, WindDirDegrees
2013-10-1,78,66,55,55,48,37,94,59,24,30.01,29.88,29.77,10,10,3,13,9,18,0.00,0,,252
2013-10-2,78,62,46,57,43,32,82,50,21,30.08,29.99,29.88,10,10,10,20,8,26,0.00,1,,112
2013-10-3,77,70,62,68,61,55,100,83,61,29.91,29.84,29.78,10,8,0,15,8,21,0.40,6,Fog-Rain,123
2013-10-4,71,66,62,66,63,61,100,89,73,29.92,29.86,29.76,10,7,0,18,9,30,2.09,6,Fog-Rain,90
2013-10-5,71,58,44,66,47,37,94,71,48,29.89,29.82,29.77,10,10,9,18,10,25,0.00,4,,223
2013-10-6,50,47,44,48,42,39,94,82,71,29.84,29.75,29.72,10,9,2,17,4,23,0.03,8,Rain,240
2013-10-7,66,54,41,48,44,39,100,72,46,30.04,29.96,29.85,10,10,10,16,9,22,0.00,0,,291
2013-10-8,75,60,46,46,44,41,87,58,29,30.06,30.02,29.97,10,10,10,26,12,36,0.00,0,,173
2013-10-9,73,62,50,50,46,43,87,60,33,30.13,30.09,30.04,10,10,10,18,11,24,0.00,0,,161
2013-10-10,75,62,48,52,47,43,82,62,36,30.10,30.03,29.94,10,10,10,21,10,25,0.00,0,,147
2013-10-11,75,64,53,57,53,50,94,67,44,29.95,29.84,29.74,10,10,9,29,15,39,0.01,2,,150
2013-10-12,66,55,42,57,39,30,82,56,30,30.23,30.01,29.79,10,10,10,24,13,33,0.00,1,,268
2013-10-13,60,48,35,36,31,27,87,56,27,30.44,30.37,30.24,10,10,9,9,5,13,0.00,0,,335
2013-10-14,62,50,39,45,36,32,82,58,34,30.39,30.21,29.92,10,10,5,23,11,32,0.04,2,Rain,118
2013-10-15,55,50,46,54,46,41,94,85,67,29.90,29.80,29.75,10,8,2,24,18,34,0.42,8,Rain,210
2013-10-16,48,44,39,46,43,37,100,89,81,29.96,29.92,29.81,10,8,2,16,11,23,0.01,7,Rain,298
2013-10-17,57,47,37,43,37,34,100,74,41,29.94,29.86,29.81,10,9,2,20,6,25,0.00,3,,243
2013-10-18,50,44,37,39,34,28,93,71,43,30.01,29.94,29.88,10,10,4,20,12,24,0.00,5,,291
2013-10-19,48,40,32,39,33,27,93,79,61,29.90,29.81,29.73,10,10,2,16,8,25,0.10,5,Rain,263
2013-10-20,55,42,30,41,34,27,93,77,54,29.89,29.76,29.65,10,10,9,24,8,36,0.00,6,Rain,226
2013-10-21,42,35,28,34,25,21,87,65,49,30.01,29.97,29.90,10,10,9,21,13,28,0.00,4,,300
2013-10-22,42,35,28,28,27,25,93,71,53,30.03,29.98,29.94,10,10,10,18,4,26,0.00,7,,353
2013-10-23,39,34,28,28,25,21,86,68,56,30.10,30.04,30.01,10,10,10,18,9,25,0.00,7,,299
2013-10-24,42,36,30,27,23,19,86,63,45,30.34,30.23,30.10,10,10,10,21,9,25,0.00,7,,311
2013-10-25,53,38,24,32,28,23,93,65,40,30.35,30.19,29.91,10,10,8,26,9,36,0.00,2,,229
2013-10-26,50,42,32,34,29,27,80,59,40,30.11,30.02,29.87,10,10,10,24,16,32,0.00,1,,299
2013-10-27,59,42,26,32,28,23,86,63,34,30.08,29.96,29.84,10,10,10,20,8,23,0.00,0,,195
2013-10-28,44,40,35,32,30,28,81,69,57,30.35,30.26,30.01,10,10,9,21,13,26,0.00,4,,57
2013-10-29,57,47,37,41,36,28,75,63,51,30.34,30.17,30.05,10,10,9,17,11,23,0.00,6,,109
2013-10-30,64,56,48,55,50,39,100,87,63,30.05,29.88,29.67,10,6,0,36,11,45,0.02,7,Fog-Rain,152
2013-10-31,55,47,39,55,42,36,100,90,81,29.65,29.51,29.43,10,7,0,16,8,21,0.01,8,Fog,289